SKX2212 SPJC-SPTU
Flight info
| Callsign | SKX2212 |
|---|---|
| Flight time | 1h 16m |
| Altitude | 35000 |
| Route | EVSUR2 ILPIP UT218 ANBON ISUMO |
| Aircraft | A20N/M-SD3/L |
Departure
| Time | 2026-04-27 00:09 |
|---|---|
| Airport | Jorge Chávez International Airport (SPJC) |
Arrival
| Time | 2026-04-27 01:26 |
|---|---|
| Airport | Padre Aldamiz International Airport (SPTU) |
| Time | Latitude | Longitude | Altitude | Speed | Heading |
|---|---|---|---|---|---|
| 2026-04-26 23:42 | -12.02733 | -77.11485 | 132 ft | 0 kts | 244° |
| 2026-04-26 23:55 | -12.02731 | -77.11481 | 132 ft | 3 kts | 244° |
| 2026-04-26 23:56 | -12.02720 | -77.11457 | 132 ft | 3 kts | 244° |
| 2026-04-26 23:56 | -12.02720 | -77.11433 | 132 ft | 3 kts | 297° |
| 2026-04-26 23:56 | -12.02735 | -77.11419 | 132 ft | 0 kts | 338° |
| 2026-04-26 23:57 | -12.02735 | -77.11418 | 132 ft | 0 kts | 335° |
| 2026-04-26 23:58 | -12.02734 | -77.11418 | 132 ft | 0 kts | 333° |
| 2026-04-27 00:01 | -12.02725 | -77.11423 | 132 ft | 2 kts | 333° |
| 2026-04-27 00:02 | -12.02691 | -77.11433 | 132 ft | 8 kts | 357° |
| 2026-04-27 00:02 | -12.02624 | -77.11403 | 132 ft | 13 kts | 21° |
| 2026-04-27 00:02 | -12.02528 | -77.11438 | 132 ft | 17 kts | 336° |
| 2026-04-27 00:02 | -12.02404 | -77.11498 | 132 ft | 21 kts | 334° |
| 2026-04-27 00:03 | -12.02334 | -77.11533 | 132 ft | 6 kts | 333° |
| 2026-04-27 00:03 | -12.02296 | -77.11553 | 132 ft | 0 kts | 333° |
| 2026-04-27 00:03 | -12.02292 | -77.11556 | 132 ft | 2 kts | 333° |
| 2026-04-27 00:03 | -12.02250 | -77.11577 | 132 ft | 10 kts | 333° |
| 2026-04-27 00:04 | -12.02165 | -77.11619 | 132 ft | 16 kts | 336° |
| 2026-04-27 00:04 | -12.02043 | -77.11677 | 132 ft | 21 kts | 334° |
| 2026-04-27 00:04 | -12.01894 | -77.11750 | 132 ft | 24 kts | 335° |
| 2026-04-27 00:04 | -12.01857 | -77.11870 | 132 ft | 20 kts | 251° |
| 2026-04-27 00:05 | -12.01916 | -77.12003 | 132 ft | 20 kts | 244° |
| 2026-04-27 00:05 | -12.01976 | -77.12130 | 132 ft | 19 kts | 244° |
| 2026-04-27 00:05 | -12.02037 | -77.12255 | 131 ft | 19 kts | 245° |
| 2026-04-27 00:05 | -12.02097 | -77.12382 | 131 ft | 19 kts | 244° |
| 2026-04-27 00:06 | -12.02096 | -77.12491 | 131 ft | 16 kts | 329° |
| 2026-04-27 00:06 | -12.01992 | -77.12546 | 131 ft | 17 kts | 333° |
| 2026-04-27 00:06 | -12.01883 | -77.12600 | 131 ft | 17 kts | 333° |
| 2026-04-27 00:06 | -12.01773 | -77.12653 | 131 ft | 18 kts | 334° |
| 2026-04-27 00:07 | -12.01653 | -77.12714 | 131 ft | 20 kts | 334° |
| 2026-04-27 00:07 | -12.01512 | -77.12782 | 131 ft | 24 kts | 334° |
| 2026-04-27 00:07 | -12.01364 | -77.12859 | 131 ft | 23 kts | 331° |
| 2026-04-27 00:07 | -12.01215 | -77.12925 | 131 ft | 22 kts | 342° |
| 2026-04-27 00:08 | -12.01164 | -77.12981 | 131 ft | 11 kts | 255° |
| 2026-04-27 00:08 | -12.01193 | -77.13060 | 131 ft | 12 kts | 245° |
| 2026-04-27 00:08 | -12.01265 | -77.13081 | 131 ft | 18 kts | 159° |
| 2026-04-27 00:08 | -12.01628 | -77.12903 | 131 ft | 95 kts | 155° |
| 2026-04-27 00:09 | -12.02432 | -77.12507 | 138 ft | 156 kts | 154° |
| 2026-04-27 00:09 | -12.03472 | -77.11980 | 549 ft | 173 kts | 155° |
| 2026-04-27 00:09 | -12.04541 | -77.11421 | 1336 ft | 174 kts | 152° |
| 2026-04-27 00:09 | -12.05544 | -77.10812 | 2200 ft | 167 kts | 150° |
| 2026-04-27 00:10 | -12.06556 | -77.10179 | 2672 ft | 181 kts | 150° |
| 2026-04-27 00:10 | -12.07704 | -77.09479 | 3061 ft | 202 kts | 150° |
| 2026-04-27 00:10 | -12.08976 | -77.08720 | 3511 ft | 221 kts | 150° |
| 2026-04-27 00:10 | -12.10345 | -77.07911 | 3997 ft | 238 kts | 150° |
| 2026-04-27 00:11 | -12.11846 | -77.07028 | 4483 ft | 255 kts | 150° |
| 2026-04-27 00:11 | -12.13420 | -77.06105 | 4973 ft | 271 kts | 150° |
| 2026-04-27 00:11 | -12.15091 | -77.05127 | 5689 ft | 277 kts | 150° |
| 2026-04-27 00:11 | -12.16706 | -77.04060 | 6411 ft | 281 kts | 137° |
| 2026-04-27 00:12 | -12.17815 | -77.02443 | 7089 ft | 283 kts | 110° |
| 2026-04-27 00:12 | -12.18082 | -77.00449 | 7761 ft | 287 kts | 83° |
| 2026-04-27 00:12 | -12.17411 | -76.98536 | 8395 ft | 290 kts | 56° |
| 2026-04-27 00:12 | -12.15947 | -76.97140 | 8819 ft | 292 kts | 28° |
| 2026-04-27 00:13 | -12.14000 | -76.96510 | 9012 ft | 294 kts | 11° |
| 2026-04-27 00:13 | -12.12048 | -76.95913 | 9005 ft | 294 kts | 29° |
| 2026-04-27 00:13 | -12.10543 | -76.94531 | 9016 ft | 291 kts | 57° |
| 2026-04-27 00:13 | -12.09533 | -76.92744 | 9041 ft | 293 kts | 60° |
| 2026-04-27 00:14 | -12.08533 | -76.90929 | 9057 ft | 293 kts | 60° |
| 2026-04-27 00:14 | -12.07542 | -76.89116 | 9069 ft | 293 kts | 61° |
| 2026-04-27 00:14 | -12.06550 | -76.87280 | 9079 ft | 293 kts | 61° |
| 2026-04-27 00:14 | -12.05675 | -76.85414 | 9082 ft | 292 kts | 72° |
| 2026-04-27 00:15 | -12.05359 | -76.83344 | 9137 ft | 297 kts | 91° |
| 2026-04-27 00:15 | -12.05491 | -76.81230 | 9655 ft | 303 kts | 94° |
| 2026-04-27 00:15 | -12.05674 | -76.79090 | 10403 ft | 301 kts | 95° |
| 2026-04-27 00:15 | -12.05854 | -76.76946 | 10759 ft | 314 kts | 94° |
| 2026-04-27 00:16 | -12.06036 | -76.74665 | 11057 ft | 328 kts | 94° |
| 2026-04-27 00:16 | -12.06219 | -76.72308 | 11514 ft | 338 kts | 94° |
| 2026-04-27 00:16 | -12.06400 | -76.69920 | 12138 ft | 341 kts | 94° |
| 2026-04-27 00:16 | -12.06582 | -76.67513 | 12761 ft | 342 kts | 94° |
| 2026-04-27 00:17 | -12.06761 | -76.65089 | 13355 ft | 346 kts | 94° |
| 2026-04-27 00:17 | -12.06942 | -76.62634 | 13948 ft | 348 kts | 94° |
| 2026-04-27 00:17 | -12.07124 | -76.60163 | 14514 ft | 351 kts | 94° |
| 2026-04-27 00:17 | -12.07309 | -76.57672 | 15092 ft | 354 kts | 94° |
| 2026-04-27 00:18 | -12.07495 | -76.55163 | 15664 ft | 357 kts | 94° |
| 2026-04-27 00:18 | -12.07683 | -76.52644 | 16214 ft | 360 kts | 94° |
| 2026-04-27 00:18 | -12.07873 | -76.50079 | 16763 ft | 363 kts | 94° |
| 2026-04-27 00:18 | -12.08063 | -76.47507 | 17272 ft | 365 kts | 94° |
| 2026-04-27 00:19 | -12.08253 | -76.44919 | 17762 ft | 368 kts | 94° |
| 2026-04-27 00:19 | -12.08445 | -76.42317 | 18240 ft | 371 kts | 94° |
| 2026-04-27 00:19 | -12.08640 | -76.39669 | 18710 ft | 374 kts | 94° |
| 2026-04-27 00:19 | -12.08836 | -76.37008 | 19165 ft | 377 kts | 94° |
| 2026-04-27 00:20 | -12.09031 | -76.34377 | 19597 ft | 379 kts | 94° |
| 2026-04-27 00:20 | -12.09233 | -76.31648 | 20033 ft | 381 kts | 94° |
| 2026-04-27 00:20 | -12.09431 | -76.28954 | 20434 ft | 383 kts | 94° |
| 2026-04-27 00:20 | -12.09629 | -76.26256 | 20829 ft | 386 kts | 94° |
| 2026-04-27 00:21 | -12.09829 | -76.23525 | 21225 ft | 388 kts | 94° |
| 2026-04-27 00:21 | -12.10031 | -76.20754 | 21618 ft | 390 kts | 94° |
| 2026-04-27 00:21 | -12.10232 | -76.18002 | 21992 ft | 391 kts | 94° |
| 2026-04-27 00:21 | -12.10434 | -76.15224 | 22350 ft | 393 kts | 94° |
| 2026-04-27 00:22 | -12.10636 | -76.12446 | 22670 ft | 394 kts | 94° |
| 2026-04-27 00:22 | -12.10839 | -76.09650 | 23009 ft | 394 kts | 94° |
| 2026-04-27 00:22 | -12.11039 | -76.06873 | 23406 ft | 393 kts | 94° |
| 2026-04-27 00:22 | -12.11239 | -76.04122 | 23901 ft | 393 kts | 94° |
| 2026-04-27 00:23 | -12.11438 | -76.01327 | 24438 ft | 393 kts | 94° |
| 2026-04-27 00:23 | -12.11614 | -75.98550 | 24939 ft | 395 kts | 93° |
| 2026-04-27 00:23 | -12.11785 | -75.95731 | 25414 ft | 398 kts | 93° |
| 2026-04-27 00:23 | -12.11953 | -75.92920 | 25874 ft | 401 kts | 93° |
| 2026-04-27 00:24 | -12.12125 | -75.90073 | 26320 ft | 404 kts | 93° |
| 2026-04-27 00:24 | -12.12298 | -75.87202 | 26758 ft | 407 kts | 93° |
| 2026-04-27 00:24 | -12.12472 | -75.84310 | 27191 ft | 409 kts | 93° |
| 2026-04-27 00:24 | -12.12645 | -75.81430 | 27599 ft | 412 kts | 93° |
| 2026-04-27 00:25 | -12.12820 | -75.78512 | 28002 ft | 416 kts | 92° |
| 2026-04-27 00:25 | -12.12998 | -75.75553 | 28420 ft | 419 kts | 92° |
| 2026-04-27 00:25 | -12.13177 | -75.72569 | 28840 ft | 422 kts | 92° |
| 2026-04-27 00:25 | -12.13357 | -75.69569 | 29263 ft | 425 kts | 92° |
| 2026-04-27 00:26 | -12.13539 | -75.66560 | 29704 ft | 428 kts | 92° |
| 2026-04-27 00:26 | -12.13724 | -75.63528 | 30133 ft | 431 kts | 92° |
| 2026-04-27 00:26 | -12.13909 | -75.60468 | 30538 ft | 434 kts | 92° |
| 2026-04-27 00:26 | -12.14096 | -75.57370 | 30932 ft | 438 kts | 92° |
| 2026-04-27 00:27 | -12.14281 | -75.54279 | 31315 ft | 441 kts | 92° |
| 2026-04-27 00:27 | -12.14468 | -75.51136 | 31744 ft | 442 kts | 92° |
| 2026-04-27 00:27 | -12.14653 | -75.48026 | 32232 ft | 441 kts | 91° |
| 2026-04-27 00:27 | -12.14838 | -75.44910 | 32721 ft | 441 kts | 91° |
| 2026-04-27 00:28 | -12.15021 | -75.41807 | 33193 ft | 440 kts | 91° |
| 2026-04-27 00:28 | -12.15206 | -75.38676 | 33667 ft | 440 kts | 91° |
| 2026-04-27 00:28 | -12.15389 | -75.35580 | 34140 ft | 440 kts | 91° |
| 2026-04-27 00:28 | -12.15570 | -75.32482 | 34599 ft | 440 kts | 91° |
| 2026-04-27 00:29 | -12.15754 | -75.29337 | 35020 ft | 442 kts | 91° |
| 2026-04-27 00:29 | -12.15935 | -75.26188 | 35395 ft | 444 kts | 91° |
| 2026-04-27 00:29 | -12.16116 | -75.23058 | 35743 ft | 446 kts | 91° |
| 2026-04-27 00:29 | -12.16299 | -75.19886 | 36024 ft | 449 kts | 91° |
| 2026-04-27 00:30 | -12.16668 | -75.13525 | 36070 ft | 449 kts | 91° |
| 2026-04-27 00:30 | -12.17037 | -75.07167 | 36029 ft | 448 kts | 92° |
| 2026-04-27 00:31 | -12.17220 | -75.04014 | 35921 ft | 447 kts | 92° |
| 2026-04-27 00:31 | -12.17405 | -75.00811 | 35831 ft | 447 kts | 91° |
| 2026-04-27 00:31 | -12.17768 | -74.94520 | 35667 ft | 447 kts | 91° |
| 2026-04-27 00:32 | -12.18132 | -74.88153 | 35484 ft | 447 kts | 91° |
| 2026-04-27 00:32 | -12.18492 | -74.81819 | 35310 ft | 447 kts | 91° |
| 2026-04-27 00:33 | -12.18849 | -74.75523 | 35147 ft | 447 kts | 91° |
| 2026-04-27 00:33 | -12.19208 | -74.69173 | 35069 ft | 447 kts | 91° |
| 2026-04-27 00:34 | -12.19564 | -74.62839 | 35122 ft | 448 kts | 91° |
| 2026-04-27 00:34 | -12.19919 | -74.56519 | 35211 ft | 447 kts | 91° |
| 2026-04-27 00:35 | -12.20275 | -74.50153 | 35359 ft | 447 kts | 91° |
| 2026-04-27 00:35 | -12.20627 | -74.43825 | 35337 ft | 447 kts | 92° |
| 2026-04-27 00:36 | -12.20801 | -74.40667 | 35227 ft | 447 kts | 92° |
| 2026-04-27 00:36 | -12.20976 | -74.37508 | 35105 ft | 447 kts | 92° |
| 2026-04-27 00:36 | -12.21151 | -74.34329 | 34983 ft | 447 kts | 91° |
| 2026-04-27 00:36 | -12.21325 | -74.31177 | 34866 ft | 446 kts | 91° |
| 2026-04-27 00:37 | -12.21500 | -74.27988 | 34725 ft | 447 kts | 91° |
| 2026-04-27 00:37 | -12.21672 | -74.24836 | 34610 ft | 447 kts | 91° |
| 2026-04-27 00:37 | -12.22017 | -74.18512 | 34482 ft | 447 kts | 91° |
| 2026-04-27 00:38 | -12.22362 | -74.12152 | 34490 ft | 447 kts | 91° |
| 2026-04-27 00:38 | -12.22704 | -74.05826 | 34540 ft | 446 kts | 92° |
| 2026-04-27 00:39 | -12.23042 | -73.99530 | 34624 ft | 446 kts | 91° |
| 2026-04-27 00:39 | -12.23380 | -73.93211 | 34713 ft | 447 kts | 91° |
| 2026-04-27 00:40 | -12.23825 | -73.86867 | 34814 ft | 447 kts | 94° |
| 2026-04-27 00:40 | -12.24386 | -73.80576 | 34910 ft | 447 kts | 94° |
| 2026-04-27 00:41 | -12.24950 | -73.74239 | 35023 ft | 447 kts | 94° |
| 2026-04-27 00:41 | -12.25505 | -73.67945 | 35124 ft | 447 kts | 94° |
| 2026-04-27 00:42 | -12.26057 | -73.61623 | 35211 ft | 447 kts | 94° |
| 2026-04-27 00:42 | -12.26608 | -73.55306 | 35302 ft | 447 kts | 94° |
| 2026-04-27 00:43 | -12.27155 | -73.49027 | 35397 ft | 447 kts | 94° |
| 2026-04-27 00:43 | -12.27702 | -73.42722 | 35391 ft | 447 kts | 94° |
| 2026-04-27 00:44 | -12.28250 | -73.36398 | 35303 ft | 447 kts | 94° |
| 2026-04-27 00:44 | -12.28796 | -73.30084 | 35208 ft | 447 kts | 93° |
| 2026-04-27 00:45 | -12.29339 | -73.23781 | 35093 ft | 447 kts | 94° |
| 2026-04-27 00:45 | -12.29885 | -73.17454 | 34999 ft | 447 kts | 94° |
| 2026-04-27 00:46 | -12.30426 | -73.11148 | 34926 ft | 446 kts | 94° |
| 2026-04-27 00:46 | -12.30968 | -73.04818 | 34861 ft | 446 kts | 94° |
| 2026-04-27 00:47 | -12.31503 | -72.98533 | 34809 ft | 446 kts | 94° |
| 2026-04-27 00:47 | -12.32040 | -72.92213 | 34792 ft | 446 kts | 94° |
| 2026-04-27 00:48 | -12.32574 | -72.85912 | 34777 ft | 446 kts | 94° |
| 2026-04-27 00:48 | -12.33103 | -72.79650 | 34728 ft | 446 kts | 94° |
| 2026-04-27 00:49 | -12.33637 | -72.73319 | 34668 ft | 446 kts | 94° |
| 2026-04-27 00:49 | -12.34164 | -72.67014 | 34618 ft | 446 kts | 94° |
| 2026-04-27 00:50 | -12.34952 | -72.57596 | 34618 ft | 445 kts | 94° |
| 2026-04-27 00:51 | -12.35477 | -72.51297 | 34671 ft | 445 kts | 94° |
| 2026-04-27 00:51 | -12.36000 | -72.45001 | 34725 ft | 445 kts | 94° |
| 2026-04-27 00:52 | -12.36519 | -72.38741 | 34797 ft | 444 kts | 94° |
| 2026-04-27 00:52 | -12.37039 | -72.32451 | 34874 ft | 444 kts | 93° |
| 2026-04-27 00:53 | -12.37559 | -72.26150 | 34954 ft | 444 kts | 93° |
| 2026-04-27 00:53 | -12.38077 | -72.19842 | 35037 ft | 444 kts | 93° |
| 2026-04-27 00:54 | -12.38592 | -72.13575 | 35131 ft | 444 kts | 93° |
| 2026-04-27 00:54 | -12.39111 | -72.07275 | 35240 ft | 444 kts | 93° |
| 2026-04-27 00:55 | -12.39621 | -72.01013 | 35370 ft | 445 kts | 93° |
| 2026-04-27 00:55 | -12.40133 | -71.94710 | 35434 ft | 445 kts | 93° |
| 2026-04-27 00:56 | -12.40643 | -71.88415 | 35347 ft | 445 kts | 93° |
| 2026-04-27 00:56 | -12.41150 | -71.82134 | 35218 ft | 445 kts | 93° |
| 2026-04-27 00:57 | -12.41657 | -71.75843 | 35076 ft | 445 kts | 93° |
| 2026-04-27 00:57 | -12.42157 | -71.69601 | 34940 ft | 445 kts | 93° |
| 2026-04-27 00:58 | -12.42661 | -71.63297 | 34799 ft | 445 kts | 93° |
| 2026-04-27 00:58 | -12.43164 | -71.57012 | 34666 ft | 444 kts | 94° |
| 2026-04-27 00:59 | -12.43672 | -71.50689 | 34542 ft | 445 kts | 94° |
| 2026-04-27 00:59 | -12.44173 | -71.44421 | 34459 ft | 445 kts | 94° |
| 2026-04-27 01:00 | -12.44673 | -71.38121 | 34513 ft | 445 kts | 94° |
| 2026-04-27 01:00 | -12.44923 | -71.34975 | 34872 ft | 441 kts | 93° |
| 2026-04-27 01:00 | -12.45167 | -71.31888 | 35387 ft | 433 kts | 93° |
| 2026-04-27 01:00 | -12.45408 | -71.28853 | 35979 ft | 423 kts | 93° |
| 2026-04-27 01:01 | -12.45631 | -71.26038 | 36626 ft | 415 kts | 93° |
| 2026-04-27 01:01 | -12.45863 | -71.23092 | 37026 ft | 417 kts | 93° |
| 2026-04-27 01:01 | -12.46097 | -71.20104 | 37238 ft | 425 kts | 93° |
| 2026-04-27 01:01 | -12.46333 | -71.17088 | 37350 ft | 436 kts | 93° |
| 2026-04-27 01:02 | -12.46579 | -71.13943 | 37336 ft | 444 kts | 93° |
| 2026-04-27 01:02 | -12.47069 | -71.07667 | 37219 ft | 445 kts | 93° |
| 2026-04-27 01:02 | -12.47317 | -71.04491 | 36700 ft | 450 kts | 93° |
| 2026-04-27 01:03 | -12.47565 | -71.01302 | 35784 ft | 459 kts | 93° |
| 2026-04-27 01:03 | -12.47817 | -70.98047 | 35067 ft | 459 kts | 93° |
| 2026-04-27 01:03 | -12.48068 | -70.94812 | 34438 ft | 456 kts | 93° |
| 2026-04-27 01:03 | -12.48316 | -70.91608 | 33768 ft | 455 kts | 93° |
| 2026-04-27 01:04 | -12.48566 | -70.88374 | 32926 ft | 455 kts | 93° |
| 2026-04-27 01:04 | -12.48813 | -70.85174 | 32034 ft | 456 kts | 93° |
| 2026-04-27 01:04 | -12.49060 | -70.81969 | 31122 ft | 458 kts | 94° |
| 2026-04-27 01:04 | -12.49310 | -70.78722 | 30207 ft | 458 kts | 94° |
| 2026-04-27 01:05 | -12.49557 | -70.75507 | 29471 ft | 453 kts | 94° |
| 2026-04-27 01:05 | -12.49802 | -70.72317 | 28760 ft | 449 kts | 94° |
| 2026-04-27 01:05 | -12.50044 | -70.69160 | 28052 ft | 446 kts | 94° |
| 2026-04-27 01:05 | -12.50286 | -70.66005 | 27334 ft | 443 kts | 94° |
| 2026-04-27 01:06 | -12.50524 | -70.62890 | 26661 ft | 441 kts | 94° |
| 2026-04-27 01:06 | -12.50761 | -70.59785 | 26017 ft | 437 kts | 94° |
| 2026-04-27 01:06 | -12.50996 | -70.56706 | 25389 ft | 433 kts | 94° |
| 2026-04-27 01:06 | -12.51228 | -70.53654 | 24772 ft | 430 kts | 95° |
| 2026-04-27 01:07 | -12.51457 | -70.50635 | 24163 ft | 426 kts | 95° |
| 2026-04-27 01:07 | -12.51684 | -70.47636 | 23559 ft | 422 kts | 95° |
| 2026-04-27 01:07 | -12.51908 | -70.44682 | 22971 ft | 419 kts | 95° |
| 2026-04-27 01:07 | -12.52132 | -70.41721 | 22388 ft | 415 kts | 95° |
| 2026-04-27 01:08 | -12.52351 | -70.38814 | 21830 ft | 411 kts | 95° |
| 2026-04-27 01:08 | -12.52570 | -70.35917 | 21273 ft | 407 kts | 95° |
| 2026-04-27 01:08 | -12.52786 | -70.33051 | 20717 ft | 403 kts | 95° |
| 2026-04-27 01:08 | -12.52999 | -70.30215 | 20145 ft | 400 kts | 95° |
| 2026-04-27 01:09 | -12.53213 | -70.27373 | 19640 ft | 396 kts | 95° |
| 2026-04-27 01:09 | -12.53413 | -70.24703 | 19055 ft | 393 kts | 95° |
| 2026-04-27 01:09 | -12.53622 | -70.21927 | 18518 ft | 389 kts | 95° |
| 2026-04-27 01:09 | -12.53827 | -70.19199 | 17991 ft | 384 kts | 94° |
| 2026-04-27 01:10 | -12.54030 | -70.16477 | 17434 ft | 382 kts | 94° |
| 2026-04-27 01:10 | -12.54228 | -70.13801 | 16937 ft | 378 kts | 94° |
| 2026-04-27 01:10 | -12.54427 | -70.11123 | 16471 ft | 373 kts | 94° |
| 2026-04-27 01:10 | -12.54693 | -70.08530 | 16035 ft | 367 kts | 99° |
| 2026-04-27 01:11 | -12.55200 | -70.05979 | 15582 ft | 363 kts | 104° |
| 2026-04-27 01:11 | -12.55903 | -70.03510 | 15131 ft | 359 kts | 106° |
| 2026-04-27 01:11 | -12.56622 | -70.01090 | 14681 ft | 355 kts | 105° |
| 2026-04-27 01:11 | -12.57327 | -69.98689 | 14243 ft | 350 kts | 106° |
| 2026-04-27 01:12 | -12.58018 | -69.96330 | 13819 ft | 346 kts | 106° |
| 2026-04-27 01:12 | -12.58700 | -69.94005 | 13395 ft | 343 kts | 106° |
| 2026-04-27 01:12 | -12.59384 | -69.91674 | 12968 ft | 341 kts | 106° |
| 2026-04-27 01:12 | -12.60067 | -69.89346 | 12539 ft | 338 kts | 106° |
| 2026-04-27 01:13 | -12.60735 | -69.87064 | 12118 ft | 335 kts | 106° |
| 2026-04-27 01:13 | -12.61404 | -69.84782 | 11690 ft | 332 kts | 106° |
| 2026-04-27 01:13 | -12.62054 | -69.82559 | 11271 ft | 330 kts | 106° |
| 2026-04-27 01:13 | -12.62716 | -69.80295 | 10843 ft | 328 kts | 106° |
| 2026-04-27 01:14 | -12.63362 | -69.78087 | 10425 ft | 326 kts | 106° |
| 2026-04-27 01:14 | -12.64011 | -69.75868 | 10075 ft | 320 kts | 106° |
| 2026-04-27 01:14 | -12.64635 | -69.73739 | 9942 ft | 307 kts | 106° |
| 2026-04-27 01:14 | -12.65232 | -69.71701 | 9851 ft | 292 kts | 106° |
| 2026-04-27 01:15 | -12.65812 | -69.69717 | 9532 ft | 290 kts | 106° |
| 2026-04-27 01:15 | -12.66390 | -69.67745 | 9190 ft | 289 kts | 106° |
| 2026-04-27 01:15 | -12.66962 | -69.65790 | 8859 ft | 287 kts | 106° |
| 2026-04-27 01:15 | -12.67531 | -69.63842 | 8533 ft | 285 kts | 106° |
| 2026-04-27 01:16 | -12.68098 | -69.61899 | 8210 ft | 282 kts | 106° |
| 2026-04-27 01:16 | -12.68652 | -69.60005 | 7899 ft | 280 kts | 106° |
| 2026-04-27 01:16 | -12.69208 | -69.58108 | 7589 ft | 277 kts | 106° |
| 2026-04-27 01:16 | -12.69764 | -69.56203 | 7278 ft | 275 kts | 106° |
| 2026-04-27 01:17 | -12.70311 | -69.54333 | 6975 ft | 273 kts | 106° |
| 2026-04-27 01:17 | -12.70847 | -69.52495 | 6678 ft | 272 kts | 106° |
| 2026-04-27 01:17 | -12.71389 | -69.50635 | 6378 ft | 270 kts | 106° |
| 2026-04-27 01:17 | -12.71921 | -69.48807 | 6084 ft | 268 kts | 106° |
| 2026-04-27 01:18 | -12.72452 | -69.46984 | 5791 ft | 266 kts | 106° |
| 2026-04-27 01:18 | -12.72977 | -69.45180 | 5500 ft | 264 kts | 106° |
| 2026-04-27 01:18 | -12.73500 | -69.43384 | 5208 ft | 262 kts | 106° |
| 2026-04-27 01:18 | -12.74013 | -69.41619 | 4921 ft | 260 kts | 106° |
| 2026-04-27 01:19 | -12.74531 | -69.39838 | 4630 ft | 258 kts | 106° |
| 2026-04-27 01:19 | -12.75039 | -69.38085 | 4343 ft | 257 kts | 106° |
| 2026-04-27 01:19 | -12.75546 | -69.36336 | 4057 ft | 255 kts | 106° |
| 2026-04-27 01:19 | -12.76049 | -69.34602 | 3770 ft | 254 kts | 106° |
| 2026-04-27 01:20 | -12.76552 | -69.32867 | 3491 ft | 253 kts | 106° |
| 2026-04-27 01:20 | -12.77051 | -69.31151 | 3255 ft | 250 kts | 106° |
| 2026-04-27 01:20 | -12.77540 | -69.29461 | 3141 ft | 239 kts | 106° |
| 2026-04-27 01:20 | -12.77991 | -69.27918 | 3124 ft | 225 kts | 105° |
| 2026-04-27 01:21 | -12.78431 | -69.26409 | 3099 ft | 220 kts | 105° |
| 2026-04-27 01:21 | -12.78585 | -69.24895 | 3019 ft | 213 kts | 76° |
| 2026-04-27 01:21 | -12.77908 | -69.23624 | 2981 ft | 196 kts | 39° |
| 2026-04-27 01:21 | -12.76689 | -69.23094 | 2997 ft | 192 kts | 2° |
| 2026-04-27 01:22 | -12.75365 | -69.23177 | 3074 ft | 185 kts | 354° |
| 2026-04-27 01:22 | -12.74100 | -69.23292 | 2843 ft | 179 kts | 357° |
| 2026-04-27 01:22 | -12.72877 | -69.23334 | 2601 ft | 175 kts | 360° |
| 2026-04-27 01:22 | -12.71664 | -69.23321 | 2377 ft | 165 kts | 2° |
| 2026-04-27 01:23 | -12.70564 | -69.23277 | 2153 ft | 153 kts | 3° |
| 2026-04-27 01:23 | -12.69549 | -69.23231 | 1952 ft | 139 kts | 3° |
| 2026-04-27 01:23 | -12.68580 | -69.23187 | 1781 ft | 137 kts | 3° |
| 2026-04-27 01:23 | -12.67634 | -69.23146 | 1621 ft | 136 kts | 3° |
| 2026-04-27 01:24 | -12.66684 | -69.23105 | 1451 ft | 136 kts | 3° |
| 2026-04-27 01:24 | -12.65740 | -69.23054 | 1270 ft | 135 kts | 4° |
| 2026-04-27 01:24 | -12.64792 | -69.22999 | 1090 ft | 135 kts | 2° |
| 2026-04-27 01:24 | -12.63856 | -69.22964 | 925 ft | 135 kts | 2° |
| 2026-04-27 01:25 | -12.62908 | -69.22930 | 757 ft | 134 kts | 1° |
| 2026-04-27 01:25 | -12.62019 | -69.22895 | 718 ft | 110 kts | 3° |
| 2026-04-27 01:25 | -12.61416 | -69.22870 | 719 ft | 71 kts | 2° |
| 2026-04-27 01:25 | -12.60933 | -69.22850 | 716 ft | 66 kts | 2° |
| 2026-04-27 01:26 | -12.60524 | -69.22832 | 712 ft | 42 kts | 2° |
| 2026-04-27 01:26 | -12.60336 | -69.22825 | 710 ft | 12 kts | 2° |
| 2026-04-27 01:26 | -12.60288 | -69.22765 | 709 ft | 13 kts | 90° |
| 2026-04-27 01:26 | -12.60293 | -69.22668 | 709 ft | 14 kts | 92° |
| 2026-04-27 01:27 | -12.60297 | -69.22565 | 708 ft | 15 kts | 92° |
| 2026-04-27 01:27 | -12.60300 | -69.22452 | 707 ft | 16 kts | 91° |
| 2026-04-27 01:27 | -12.60302 | -69.22334 | 707 ft | 17 kts | 91° |
| 2026-04-27 01:27 | -12.60309 | -69.22246 | 707 ft | 9 kts | 118° |
| 2026-04-27 01:28 | -12.60328 | -69.22213 | 706 ft | 0 kts | 118° |